Flight Number: EUR2142 Duration: 1:30
Departure: Warsaw Okecie (EPWA) at 08:30 Distance: 485 Nm
Arrival: Frankfurt Airport (EDDF) at 10:00 Equipment: CRJ700

Weather Information
Warszawa-Okecie, Poland (EPWA) 52-10N 020-58E 107M Nov 19, 2017 - 10:30 PM EST / 2017.11.20 0330 UTC
Wind: from the SW (220 degrees) at 8 MPH (7 KT):0
Visibility: greater than 7 mile(s):0
Sky conditions: mostly cloudy Temperature: 35 F (2 C)
Windchill: 28 F (-2 C):1 Dew Point: 33 F (1 C) Relative Humidity: 93% Pressure (altimeter): 29.62 in. Hg (1003 hPa)
ob: EPWA 200330Z 22007KT 9999 BKN010 02/01 Q1003 NOSIG cycle: 3
Sunrise: 06:10 Sunset: 14:32 (UTC)

Frankfurt / M-Flughafen, Germany (EDDF) 50-03N 008-36E 113M Nov 19, 2017 - 10:50 PM EST / 2017.11.20 0350 UTC
Wind: from the S (190 degrees) at 10 MPH (9 KT):0
Visibility: greater than 7 mile(s):0
Sky conditions: mostly cloudy Temperature: 39 F (4 C) Dew Point: 33 F (1 C) Relative Humidity: 80% Pressure (altimeter): 30.15 in. Hg (1021 hPa)
ob: EDDF 200350Z 19009KT 9999 FEW012 SCT040 BKN150 04/01 Q1021 NOSIG cycle: 4
Sunrise: 06:51 Sunset: 15:31 (UTC)

TAF:2017/11/19 18:28 TAF EDDF 191700Z 1918/2024 23012KT 9999 SCT035 TEMPO 1918/1922 BKN035 BECMG 2009/2012 BKN030 TEMPO 2012/2024 RA BKN012 PROB30 TEMPO 2020/2024 20015G25KT

Previous Pireps for this route
Date Aircraft Flight time Fuel used Landing rate On time
2012-10-14CRJ70001.398593-277No
2012-10-22CRJ7001.3070000Yes
2012-10-28CRJ70001.405690-71No
2013-08-27CRJ7001.4658640No
2013-09-18CRJ7001.3368100No
2014-07-23CRJ70001.357520-145Yes
2014-07-27CRJ70001.257441-286Yes
2015-04-10CRJ7001.2750900Yes
(pireps marked green are flown by you)

Route map